sensor_id;sensor_type;location;lat;lon;timestamp;temperature;humidity
25192;DHT22;13143;50.924;5.320;2023-09-18T00:00:04;22.50;99.90
25192;DHT22;13143;50.924;5.320;2023-09-18T00:02:34;22.50;99.90
25192;DHT22;13143;50.924;5.320;2023-09-18T00:05:00;22.50;99.90
25192;DHT22;13143;50.924;5.320;2023-09-18T00:07:25;22.50;99.90
25192;DHT22;13143;50.924;5.320;2023-09-18T00:09:51;22.50;99.90
25192;DHT22;13143;50.924;5.320;2023-09-18T00:12:18;22.50;99.90
25192;DHT22;13143;50.924;5.320;2023-09-18T00:14:50;22.40;99.90
25192;DHT22;13143;50.924;5.320;2023-09-18T00:17:16;22.50;99.90
25192;DHT22;13143;50.924;5.320;2023-09-18T00:19:44;22.40;99.90
25192;DHT22;13143;50.924;5.320;2023-09-18T00:22:11;22.40;99.90
25192;DHT22;13143;50.924;5.320;2023-09-18T00:24:37;22.40;99.90
25192;DHT22;13143;50.924;5.320;2023-09-18T00:27:03;22.40;99.90
25192;DHT22;13143;50.924;5.320;2023-09-18T00:29:29;22.40;99.90
25192;DHT22;13143;50.924;5.320;2023-09-18T00:31:54;22.40;99.90
25192;DHT22;13143;50.924;5.320;2023-09-18T00:34:20;22.40;99.90
25192;DHT22;13143;50.924;5.320;2023-09-18T00:36:46;22.40;99.90
25192;DHT22;13143;50.924;5.320;2023-09-18T00:39:11;22.40;99.90
25192;DHT22;13143;50.924;5.320;2023-09-18T00:41:37;22.30;99.90
25192;DHT22;13143;50.924;5.320;2023-09-18T00:44:04;22.30;99.90
25192;DHT22;13143;50.924;5.320;2023-09-18T00:46:30;22.40;99.90
25192;DHT22;13143;50.924;5.320;2023-09-18T00:48:56;22.30;99.90
25192;DHT22;13143;50.924;5.320;2023-09-18T00:51:22;22.30;99.90
25192;DHT22;13143;50.924;5.320;2023-09-18T00:53:48;22.30;99.90
25192;DHT22;13143;50.924;5.320;2023-09-18T00:56:15;22.30;99.90
25192;DHT22;13143;50.924;5.320;2023-09-18T00:58:41;22.30;99.90
25192;DHT22;13143;50.924;5.320;2023-09-18T01:01:07;22.30;99.90
25192;DHT22;13143;50.924;5.320;2023-09-18T01:03:34;22.30;99.90
25192;DHT22;13143;50.924;5.320;2023-09-18T01:06:00;22.30;99.90
25192;DHT22;13143;50.924;5.320;2023-09-18T01:08:25;22.30;99.90
25192;DHT22;13143;50.924;5.320;2023-09-18T01:13:23;22.30;99.90
25192;DHT22;13143;50.924;5.320;2023-09-18T01:16:17;22.30;99.90
25192;DHT22;13143;50.924;5.320;2023-09-18T01:18:51;22.30;99.90
25192;DHT22;13143;50.924;5.320;2023-09-18T01:21:20;22.30;99.90
25192;DHT22;13143;50.924;5.320;2023-09-18T01:23:47;22.30;99.90
25192;DHT22;13143;50.924;5.320;2023-09-18T01:26:12;22.30;99.90
25192;DHT22;13143;50.924;5.320;2023-09-18T01:28:38;22.30;99.90
25192;DHT22;13143;50.924;5.320;2023-09-18T01:31:04;22.30;99.90
25192;DHT22;13143;50.924;5.320;2023-09-18T01:33:31;22.20;99.90
25192;DHT22;13143;50.924;5.320;2023-09-18T01:35:58;22.20;99.90
25192;DHT22;13143;50.924;5.320;2023-09-18T01:38:25;22.20;99.90
25192;DHT22;13143;50.924;5.320;2023-09-18T01:40:53;22.20;99.90
25192;DHT22;13143;50.924;5.320;2023-09-18T01:43:19;22.20;99.90
25192;DHT22;13143;50.924;5.320;2023-09-18T01:45:45;22.20;99.90
25192;DHT22;13143;50.924;5.320;2023-09-18T01:48:11;22.20;99.90
25192;DHT22;13143;50.924;5.320;2023-09-18T01:50:37;22.20;99.90
25192;DHT22;13143;50.924;5.320;2023-09-18T01:53:05;22.20;99.90
25192;DHT22;13143;50.924;5.320;2023-09-18T01:55:31;22.20;99.90
25192;DHT22;13143;50.924;5.320;2023-09-18T01:57:58;22.20;99.90
25192;DHT22;13143;50.924;5.320;2023-09-18T02:00:24;22.20;99.90
25192;DHT22;13143;50.924;5.320;2023-09-18T02:02:50;22.20;99.90
25192;DHT22;13143;50.924;5.320;2023-09-18T02:05:15;22.20;99.90
25192;DHT22;13143;50.924;5.320;2023-09-18T02:07:41;22.20;99.90
25192;DHT22;13143;50.924;5.320;2023-09-18T02:10:07;22.20;99.90
25192;DHT22;13143;50.924;5.320;2023-09-18T02:12:33;22.20;99.90
25192;DHT22;13143;50.924;5.320;2023-09-18T02:14:59;22.20;99.90
25192;DHT22;13143;50.924;5.320;2023-09-18T02:17:29;22.20;99.90
25192;DHT22;13143;50.924;5.320;2023-09-18T02:19:55;22.20;99.90
25192;DHT22;13143;50.924;5.320;2023-09-18T02:22:21;22.20;99.90
25192;DHT22;13143;50.924;5.320;2023-09-18T02:24:47;22.20;99.90
25192;DHT22;13143;50.924;5.320;2023-09-18T02:27:13;22.20;99.90
25192;DHT22;13143;50.924;5.320;2023-09-18T02:29:41;22.20;99.90
25192;DHT22;13143;50.924;5.320;2023-09-18T02:32:07;22.20;99.90
25192;DHT22;13143;50.924;5.320;2023-09-18T02:34:33;22.20;99.90
25192;DHT22;13143;50.924;5.320;2023-09-18T02:37:01;22.20;99.90
25192;DHT22;13143;50.924;5.320;2023-09-18T02:39:27;22.20;99.90
25192;DHT22;13143;50.924;5.320;2023-09-18T02:41:53;22.20;99.90
25192;DHT22;13143;50.924;5.320;2023-09-18T02:44:18;22.10;99.90
25192;DHT22;13143;50.924;5.320;2023-09-18T02:46:44;22.10;99.90
25192;DHT22;13143;50.924;5.320;2023-09-18T02:49:10;22.10;99.90
25192;DHT22;13143;50.924;5.320;2023-09-18T02:51:35;22.10;99.90
25192;DHT22;13143;50.924;5.320;2023-09-18T02:54:02;22.10;99.90
25192;DHT22;13143;50.924;5.320;2023-09-18T02:56:28;22.10;99.90
25192;DHT22;13143;50.924;5.320;2023-09-18T02:58:53;22.10;99.90
25192;DHT22;13143;50.924;5.320;2023-09-18T03:01:19;22.00;99.90
25192;DHT22;13143;50.924;5.320;2023-09-18T03:03:45;22.00;99.90
25192;DHT22;13143;50.924;5.320;2023-09-18T03:06:10;22.00;99.90
25192;DHT22;13143;50.924;5.320;2023-09-18T03:08:36;22.00;99.90
25192;DHT22;13143;50.924;5.320;2023-09-18T03:11:02;22.00;99.90
25192;DHT22;13143;50.924;5.320;2023-09-18T03:13:31;22.00;99.90
25192;DHT22;13143;50.924;5.320;2023-09-18T03:15:57;21.90;99.90
25192;DHT22;13143;50.924;5.320;2023-09-18T03:18:23;21.90;99.90
25192;DHT22;13143;50.924;5.320;2023-09-18T03:20:48;21.90;99.90
25192;DHT22;13143;50.924;5.320;2023-09-18T03:23:14;21.90;99.90
25192;DHT22;13143;50.924;5.320;2023-09-18T03:25:40;21.90;99.90
25192;DHT22;13143;50.924;5.320;2023-09-18T03:28:06;21.90;99.90
25192;DHT22;13143;50.924;5.320;2023-09-18T03:30:31;21.90;99.90
25192;DHT22;13143;50.924;5.320;2023-09-18T03:32:57;21.90;99.90
25192;DHT22;13143;50.924;5.320;2023-09-18T03:35:23;21.90;99.90
25192;DHT22;13143;50.924;5.320;2023-09-18T03:37:53;21.80;99.90
25192;DHT22;13143;50.924;5.320;2023-09-18T03:40:20;21.80;99.90
25192;DHT22;13143;50.924;5.320;2023-09-18T03:42:46;21.80;99.90
25192;DHT22;13143;50.924;5.320;2023-09-18T03:45:12;21.80;99.90
25192;DHT22;13143;50.924;5.320;2023-09-18T03:47:40;21.80;99.90
25192;DHT22;13143;50.924;5.320;2023-09-18T03:50:09;21.80;99.90
25192;DHT22;13143;50.924;5.320;2023-09-18T03:52:37;21.80;99.90
25192;DHT22;13143;50.924;5.320;2023-09-18T03:55:04;21.80;99.90
25192;DHT22;13143;50.924;5.320;2023-09-18T03:57:30;21.80;99.90
25192;DHT22;13143;50.924;5.320;2023-09-18T03:59:56;21.70;99.90
25192;DHT22;13143;50.924;5.320;2023-09-18T04:02:23;21.70;99.90
25192;DHT22;13143;50.924;5.320;2023-09-18T04:04:49;21.70;99.90
25192;DHT22;13143;50.924;5.320;2023-09-18T04:07:15;21.70;99.90
25192;DHT22;13143;50.924;5.320;2023-09-18T04:09:42;21.70;99.90
25192;DHT22;13143;50.924;5.320;2023-09-18T04:12:08;21.70;99.90
25192;DHT22;13143;50.924;5.320;2023-09-18T04:14:34;21.70;99.90
25192;DHT22;13143;50.924;5.320;2023-09-18T04:16:59;21.70;99.90
25192;DHT22;13143;50.924;5.320;2023-09-18T04:19:28;21.60;99.90
25192;DHT22;13143;50.924;5.320;2023-09-18T04:21:54;21.60;99.90
25192;DHT22;13143;50.924;5.320;2023-09-18T04:24:21;21.60;99.90
25192;DHT22;13143;50.924;5.320;2023-09-18T04:26:46;21.60;99.90
25192;DHT22;13143;50.924;5.320;2023-09-18T04:29:12;21.60;99.90
25192;DHT22;13143;50.924;5.320;2023-09-18T04:31:38;21.60;99.90
25192;DHT22;13143;50.924;5.320;2023-09-18T04:34:04;21.60;99.90
25192;DHT22;13143;50.924;5.320;2023-09-18T04:36:30;21.60;99.90
25192;DHT22;13143;50.924;5.320;2023-09-18T04:38:57;21.60;99.90
25192;DHT22;13143;50.924;5.320;2023-09-18T04:41:23;21.60;99.90
25192;DHT22;13143;50.924;5.320;2023-09-18T04:43:48;21.60;99.90
25192;DHT22;13143;50.924;5.320;2023-09-18T04:46:14;21.50;99.90
25192;DHT22;13143;50.924;5.320;2023-09-18T04:48:40;21.50;99.90
25192;DHT22;13143;50.924;5.320;2023-09-18T04:51:05;21.50;99.90
25192;DHT22;13143;50.924;5.320;2023-09-18T04:53:32;21.50;99.90
25192;DHT22;13143;50.924;5.320;2023-09-18T04:55:58;21.50;99.90
25192;DHT22;13143;50.924;5.320;2023-09-18T04:58:24;21.50;99.90
25192;DHT22;13143;50.924;5.320;2023-09-18T05:00:56;21.50;99.90
25192;DHT22;13143;50.924;5.320;2023-09-18T05:03:22;21.50;99.90
25192;DHT22;13143;50.924;5.320;2023-09-18T05:05:48;21.50;99.90
25192;DHT22;13143;50.924;5.320;2023-09-18T05:08:14;21.50;99.90
25192;DHT22;13143;50.924;5.320;2023-09-18T05:10:40;21.50;99.90
25192;DHT22;13143;50.924;5.320;2023-09-18T05:13:06;21.40;99.90
25192;DHT22;13143;50.924;5.320;2023-09-18T05:15:32;21.40;99.90
25192;DHT22;13143;50.924;5.320;2023-09-18T05:17:59;21.40;99.90
25192;DHT22;13143;50.924;5.320;2023-09-18T05:20:27;21.40;99.90
25192;DHT22;13143;50.924;5.320;2023-09-18T05:22:54;21.40;99.90
25192;DHT22;13143;50.924;5.320;2023-09-18T05:25:22;21.30;99.90
25192;DHT22;13143;50.924;5.320;2023-09-18T05:27:49;21.40;99.90
25192;DHT22;13143;50.924;5.320;2023-09-18T05:30:31;21.30;99.90
25192;DHT22;13143;50.924;5.320;2023-09-18T05:33:00;21.30;99.90
25192;DHT22;13143;50.924;5.320;2023-09-18T05:35:33;21.30;99.90
25192;DHT22;13143;50.924;5.320;2023-09-18T05:37:59;21.30;99.90
25192;DHT22;13143;50.924;5.320;2023-09-18T05:40:26;21.30;99.90
25192;DHT22;13143;50.924;5.320;2023-09-18T05:42:55;21.30;99.90
25192;DHT22;13143;50.924;5.320;2023-09-18T05:45:22;21.30;99.90
25192;DHT22;13143;50.924;5.320;2023-09-18T05:47:48;21.30;99.90
25192;DHT22;13143;50.924;5.320;2023-09-18T05:50:15;21.20;99.90
25192;DHT22;13143;50.924;5.320;2023-09-18T05:52:48;21.20;99.90
25192;DHT22;13143;50.924;5.320;2023-09-18T05:55:15;21.20;99.90
25192;DHT22;13143;50.924;5.320;2023-09-18T05:57:41;21.20;99.90
25192;DHT22;13143;50.924;5.320;2023-09-18T06:00:07;21.20;99.90
25192;DHT22;13143;50.924;5.320;2023-09-18T06:02:33;21.20;99.90
25192;DHT22;13143;50.924;5.320;2023-09-18T06:05:00;21.10;99.90
25192;DHT22;13143;50.924;5.320;2023-09-18T06:07:29;21.20;99.90
25192;DHT22;13143;50.924;5.320;2023-09-18T06:09:58;21.10;99.90
25192;DHT22;13143;50.924;5.320;2023-09-18T06:12:24;21.10;99.90
25192;DHT22;13143;50.924;5.320;2023-09-18T06:14:51;21.10;99.90
25192;DHT22;13143;50.924;5.320;2023-09-18T06:17:17;21.10;99.90
25192;DHT22;13143;50.924;5.320;2023-09-18T06:19:44;21.10;99.90
25192;DHT22;13143;50.924;5.320;2023-09-18T06:22:11;21.10;99.90
25192;DHT22;13143;50.924;5.320;2023-09-18T06:24:37;21.10;99.90
25192;DHT22;13143;50.924;5.320;2023-09-18T06:27:03;21.10;99.90
25192;DHT22;13143;50.924;5.320;2023-09-18T06:29:30;21.10;99.90
25192;DHT22;13143;50.924;5.320;2023-09-18T06:31:56;21.00;99.90
25192;DHT22;13143;50.924;5.320;2023-09-18T06:34:22;21.00;99.90
25192;DHT22;13143;50.924;5.320;2023-09-18T06:36:48;21.00;99.90
25192;DHT22;13143;50.924;5.320;2023-09-18T06:39:17;21.00;99.90
25192;DHT22;13143;50.924;5.320;2023-09-18T06:41:45;21.00;99.90
25192;DHT22;13143;50.924;5.320;2023-09-18T06:44:11;21.00;99.90
25192;DHT22;13143;50.924;5.320;2023-09-18T06:46:37;21.00;99.90
25192;DHT22;13143;50.924;5.320;2023-09-18T06:49:02;21.00;99.90
25192;DHT22;13143;50.924;5.320;2023-09-18T06:51:29;21.00;99.90
25192;DHT22;13143;50.924;5.320;2023-09-18T06:53:55;21.00;99.90
25192;DHT22;13143;50.924;5.320;2023-09-18T06:56:23;21.00;99.90
25192;DHT22;13143;50.924;5.320;2023-09-18T06:58:49;21.00;99.90
25192;DHT22;13143;50.924;5.320;2023-09-18T07:01:18;21.00;99.90
25192;DHT22;13143;50.924;5.320;2023-09-18T07:03:48;20.90;99.90
25192;DHT22;13143;50.924;5.320;2023-09-18T07:06:14;20.90;99.90
25192;DHT22;13143;50.924;5.320;2023-09-18T07:08:49;21.00;99.90
25192;DHT22;13143;50.924;5.320;2023-09-18T07:11:15;20.90;99.90
25192;DHT22;13143;50.924;5.320;2023-09-18T07:13:41;20.90;99.90
25192;DHT22;13143;50.924;5.320;2023-09-18T07:16:09;20.90;99.90
25192;DHT22;13143;50.924;5.320;2023-09-18T07:18:35;20.90;99.90
25192;DHT22;13143;50.924;5.320;2023-09-18T07:21:01;20.90;99.90
25192;DHT22;13143;50.924;5.320;2023-09-18T07:23:27;20.90;99.90
25192;DHT22;13143;50.924;5.320;2023-09-18T07:25:53;20.90;99.90
25192;DHT22;13143;50.924;5.320;2023-09-18T07:28:19;20.90;99.90
25192;DHT22;13143;50.924;5.320;2023-09-18T07:30:48;20.90;99.90
25192;DHT22;13143;50.924;5.320;2023-09-18T07:33:14;20.90;99.90
25192;DHT22;13143;50.924;5.320;2023-09-18T07:35:49;20.90;99.90
25192;DHT22;13143;50.924;5.320;2023-09-18T07:38:17;20.90;99.90
25192;DHT22;13143;50.924;5.320;2023-09-18T07:40:45;20.90;99.90
25192;DHT22;13143;50.924;5.320;2023-09-18T07:43:11;20.90;99.90
25192;DHT22;13143;50.924;5.320;2023-09-18T07:45:40;20.90;99.90
25192;DHT22;13143;50.924;5.320;2023-09-18T07:48:07;20.90;99.90
25192;DHT22;13143;50.924;5.320;2023-09-18T07:50:33;20.90;99.90
25192;DHT22;13143;50.924;5.320;2023-09-18T07:53:00;20.90;99.90
25192;DHT22;13143;50.924;5.320;2023-09-18T07:55:26;20.90;99.90
25192;DHT22;13143;50.924;5.320;2023-09-18T07:57:52;20.90;99.90
25192;DHT22;13143;50.924;5.320;2023-09-18T08:00:18;20.90;99.90
25192;DHT22;13143;50.924;5.320;2023-09-18T08:02:43;20.90;99.90
25192;DHT22;13143;50.924;5.320;2023-09-18T08:05:09;20.90;99.90
25192;DHT22;13143;50.924;5.320;2023-09-18T08:07:36;20.90;99.90
25192;DHT22;13143;50.924;5.320;2023-09-18T08:10:05;20.90;99.90
25192;DHT22;13143;50.924;5.320;2023-09-18T08:12:34;20.90;99.90
25192;DHT22;13143;50.924;5.320;2023-09-18T08:15:00;20.90;99.90
25192;DHT22;13143;50.924;5.320;2023-09-18T08:17:27;20.90;99.90
25192;DHT22;13143;50.924;5.320;2023-09-18T08:19:53;20.90;99.90
25192;DHT22;13143;50.924;5.320;2023-09-18T08:22:19;20.90;99.90
25192;DHT22;13143;50.924;5.320;2023-09-18T08:24:47;20.90;99.90
25192;DHT22;13143;50.924;5.320;2023-09-18T08:27:14;20.90;99.90
25192;DHT22;13143;50.924;5.320;2023-09-18T08:29:44;20.90;99.90
25192;DHT22;13143;50.924;5.320;2023-09-18T08:32:10;21.00;99.90
25192;DHT22;13143;50.924;5.320;2023-09-18T08:34:36;20.90;99.90
25192;DHT22;13143;50.924;5.320;2023-09-18T08:37:03;21.00;99.90
25192;DHT22;13143;50.924;5.320;2023-09-18T08:39:29;21.00;99.90
25192;DHT22;13143;50.924;5.320;2023-09-18T08:41:58;21.00;99.90
25192;DHT22;13143;50.924;5.320;2023-09-18T08:44:26;21.00;99.90
25192;DHT22;13143;50.924;5.320;2023-09-18T08:46:54;21.00;99.90
25192;DHT22;13143;50.924;5.320;2023-09-18T08:49:22;21.00;99.90
25192;DHT22;13143;50.924;5.320;2023-09-18T08:51:53;21.00;99.90
25192;DHT22;13143;50.924;5.320;2023-09-18T08:54:23;21.00;99.90
25192;DHT22;13143;50.924;5.320;2023-09-18T08:56:53;21.00;99.90
25192;DHT22;13143;50.924;5.320;2023-09-18T08:59:21;21.00;99.90
25192;DHT22;13143;50.924;5.320;2023-09-18T09:01:50;21.00;99.90
25192;DHT22;13143;50.924;5.320;2023-09-18T09:04:16;21.00;99.90
25192;DHT22;13143;50.924;5.320;2023-09-18T09:06:42;21.00;99.90
25192;DHT22;13143;50.924;5.320;2023-09-18T09:09:07;21.00;99.90
25192;DHT22;13143;50.924;5.320;2023-09-18T09:11:34;21.10;99.90
25192;DHT22;13143;50.924;5.320;2023-09-18T09:14:11;21.10;99.90
25192;DHT22;13143;50.924;5.320;2023-09-18T09:16:51;21.10;99.90
25192;DHT22;13143;50.924;5.320;2023-09-18T09:19:18;21.10;99.90
25192;DHT22;13143;50.924;5.320;2023-09-18T09:21:45;21.20;99.90
25192;DHT22;13143;50.924;5.320;2023-09-18T09:24:12;21.20;99.90
25192;DHT22;13143;50.924;5.320;2023-09-18T09:26:41;21.20;99.90
25192;DHT22;13143;50.924;5.320;2023-09-18T09:29:19;21.20;99.90
25192;DHT22;13143;50.924;5.320;2023-09-18T09:31:46;21.20;99.90
25192;DHT22;13143;50.924;5.320;2023-09-18T09:34:12;21.20;99.90
25192;DHT22;13143;50.924;5.320;2023-09-18T09:36:56;21.30;99.90
25192;DHT22;13143;50.924;5.320;2023-09-18T09:39:22;21.30;99.90
25192;DHT22;13143;50.924;5.320;2023-09-18T09:41:53;21.30;99.90
25192;DHT22;13143;50.924;5.320;2023-09-18T09:44:19;21.30;99.90
25192;DHT22;13143;50.924;5.320;2023-09-18T09:46:52;21.30;99.90
25192;DHT22;13143;50.924;5.320;2023-09-18T09:49:18;21.40;99.90
25192;DHT22;13143;50.924;5.320;2023-09-18T09:51:49;21.40;99.90
25192;DHT22;13143;50.924;5.320;2023-09-18T09:54:32;21.40;99.90
25192;DHT22;13143;50.924;5.320;2023-09-18T09:57:02;21.40;99.90
25192;DHT22;13143;50.924;5.320;2023-09-18T09:59:28;21.50;99.90
25192;DHT22;13143;50.924;5.320;2023-09-18T10:01:57;21.50;99.90
25192;DHT22;13143;50.924;5.320;2023-09-18T10:04:25;21.50;99.90
25192;DHT22;13143;50.924;5.320;2023-09-18T10:06:57;21.50;99.90
25192;DHT22;13143;50.924;5.320;2023-09-18T10:09:26;21.50;99.90
25192;DHT22;13143;50.924;5.320;2023-09-18T10:11:54;21.50;99.90
25192;DHT22;13143;50.924;5.320;2023-09-18T10:14:40;21.60;99.90
25192;DHT22;13143;50.924;5.320;2023-09-18T10:17:26;21.50;99.90
25192;DHT22;13143;50.924;5.320;2023-09-18T10:20:07;21.60;99.90
25192;DHT22;13143;50.924;5.320;2023-09-18T10:22:45;21.60;99.90
25192;DHT22;13143;50.924;5.320;2023-09-18T10:25:21;21.60;99.90
25192;DHT22;13143;50.924;5.320;2023-09-18T10:27:50;21.60;99.90
25192;DHT22;13143;50.924;5.320;2023-09-18T10:30:23;21.60;99.90
25192;DHT22;13143;50.924;5.320;2023-09-18T10:32:51;21.60;99.90
25192;DHT22;13143;50.924;5.320;2023-09-18T10:35:17;21.70;99.90
25192;DHT22;13143;50.924;5.320;2023-09-18T10:37:46;21.70;99.90
25192;DHT22;13143;50.924;5.320;2023-09-18T10:40:13;21.70;99.90
25192;DHT22;13143;50.924;5.320;2023-09-18T10:42:41;21.80;99.90
25192;DHT22;13143;50.924;5.320;2023-09-18T10:45:11;21.80;99.90
25192;DHT22;13143;50.924;5.320;2023-09-18T10:47:43;21.80;99.90
25192;DHT22;13143;50.924;5.320;2023-09-18T10:50:11;21.80;99.90
25192;DHT22;13143;50.924;5.320;2023-09-18T10:52:43;21.80;99.90
25192;DHT22;13143;50.924;5.320;2023-09-18T10:55:13;21.80;99.90
25192;DHT22;13143;50.924;5.320;2023-09-18T10:57:57;21.80;99.90
25192;DHT22;13143;50.924;5.320;2023-09-18T11:00:28;21.90;99.90
25192;DHT22;13143;50.924;5.320;2023-09-18T11:03:15;21.90;99.90
25192;DHT22;13143;50.924;5.320;2023-09-18T11:05:46;21.90;99.90
25192;DHT22;13143;50.924;5.320;2023-09-18T11:11:03;21.90;99.90
25192;DHT22;13143;50.924;5.320;2023-09-18T11:13:40;21.90;99.90
25192;DHT22;13143;50.924;5.320;2023-09-18T11:19:13;22.00;99.90
25192;DHT22;13143;50.924;5.320;2023-09-18T11:21:43;22.00;99.90
25192;DHT22;13143;50.924;5.320;2023-09-18T11:24:20;22.00;99.90
25192;DHT22;13143;50.924;5.320;2023-09-18T11:26:48;22.10;99.90
25192;DHT22;13143;50.924;5.320;2023-09-18T11:29:21;22.10;99.90
25192;DHT22;13143;50.924;5.320;2023-09-18T11:31:55;22.10;99.90
25192;DHT22;13143;50.924;5.320;2023-09-18T11:34:27;22.10;99.90
25192;DHT22;13143;50.924;5.320;2023-09-18T11:37:22;22.10;99.90
25192;DHT22;13143;50.924;5.320;2023-09-18T11:39:51;22.10;99.90
25192;DHT22;13143;50.924;5.320;2023-09-18T11:42:20;22.20;99.90
25192;DHT22;13143;50.924;5.320;2023-09-18T11:44:54;22.20;99.90
25192;DHT22;13143;50.924;5.320;2023-09-18T11:47:25;22.20;99.90
25192;DHT22;13143;50.924;5.320;2023-09-18T11:49:59;22.20;99.90
25192;DHT22;13143;50.924;5.320;2023-09-18T11:52:29;22.20;99.90
25192;DHT22;13143;50.924;5.320;2023-09-18T11:54:57;22.30;99.90
25192;DHT22;13143;50.924;5.320;2023-09-18T11:57:24;22.30;99.90
25192;DHT22;13143;50.924;5.320;2023-09-18T11:59:50;22.30;99.90
25192;DHT22;13143;50.924;5.320;2023-09-18T12:02:30;22.30;99.90
25192;DHT22;13143;50.924;5.320;2023-09-18T12:05:09;22.30;99.90
25192;DHT22;13143;50.924;5.320;2023-09-18T12:07:35;22.40;99.90
25192;DHT22;13143;50.924;5.320;2023-09-18T12:10:05;22.40;99.90
25192;DHT22;13143;50.924;5.320;2023-09-18T12:12:31;22.40;99.90
25192;DHT22;13143;50.924;5.320;2023-09-18T12:14:57;22.40;99.90
25192;DHT22;13143;50.924;5.320;2023-09-18T12:17:23;22.40;99.90
25192;DHT22;13143;50.924;5.320;2023-09-18T12:19:55;22.40;99.90
25192;DHT22;13143;50.924;5.320;2023-09-18T12:22:28;22.50;99.90
25192;DHT22;13143;50.924;5.320;2023-09-18T12:25:10;22.50;99.90
25192;DHT22;13143;50.924;5.320;2023-09-18T12:27:37;22.60;99.90
25192;DHT22;13143;50.924;5.320;2023-09-18T12:30:05;22.60;99.90
25192;DHT22;13143;50.924;5.320;2023-09-18T12:32:31;22.60;99.90
25192;DHT22;13143;50.924;5.320;2023-09-18T12:34:58;22.60;99.90
25192;DHT22;13143;50.924;5.320;2023-09-18T12:37:25;22.60;99.90
25192;DHT22;13143;50.924;5.320;2023-09-18T12:39:50;22.60;99.90
25192;DHT22;13143;50.924;5.320;2023-09-18T12:42:20;22.70;99.90
25192;DHT22;13143;50.924;5.320;2023-09-18T12:44:49;22.70;99.90
25192;DHT22;13143;50.924;5.320;2023-09-18T12:47:16;22.70;99.90
25192;DHT22;13143;50.924;5.320;2023-09-18T12:49:42;22.80;99.90
25192;DHT22;13143;50.924;5.320;2023-09-18T12:52:08;22.70;99.90
25192;DHT22;13143;50.924;5.320;2023-09-18T12:54:41;22.80;99.90
25192;DHT22;13143;50.924;5.320;2023-09-18T12:57:11;22.80;99.90
25192;DHT22;13143;50.924;5.320;2023-09-18T12:59:37;22.80;99.90
25192;DHT22;13143;50.924;5.320;2023-09-18T13:02:06;22.80;99.90
25192;DHT22;13143;50.924;5.320;2023-09-18T13:04:33;22.80;99.90
25192;DHT22;13143;50.924;5.320;2023-09-18T13:07:13;22.90;99.90
25192;DHT22;13143;50.924;5.320;2023-09-18T13:09:39;22.90;99.90
25192;DHT22;13143;50.924;5.320;2023-09-18T13:12:06;22.90;99.90
25192;DHT22;13143;50.924;5.320;2023-09-18T13:14:56;23.00;99.90
25192;DHT22;13143;50.924;5.320;2023-09-18T13:17:26;23.00;99.90
25192;DHT22;13143;50.924;5.320;2023-09-18T13:19:52;23.00;99.90
25192;DHT22;13143;50.924;5.320;2023-09-18T13:22:27;23.00;99.90
25192;DHT22;13143;50.924;5.320;2023-09-18T13:24:56;23.00;99.90
25192;DHT22;13143;50.924;5.320;2023-09-18T13:27:22;23.00;99.90
25192;DHT22;13143;50.924;5.320;2023-09-18T13:29:49;23.10;99.90
25192;DHT22;13143;50.924;5.320;2023-09-18T13:32:15;23.10;99.90
25192;DHT22;13143;50.924;5.320;2023-09-18T13:34:41;23.10;99.90
25192;DHT22;13143;50.924;5.320;2023-09-18T13:37:06;23.10;99.90
25192;DHT22;13143;50.924;5.320;2023-09-18T13:39:32;23.10;99.90
25192;DHT22;13143;50.924;5.320;2023-09-18T13:41:58;23.10;99.90
25192;DHT22;13143;50.924;5.320;2023-09-18T13:44:24;23.10;99.90
25192;DHT22;13143;50.924;5.320;2023-09-18T13:46:49;23.10;99.90
25192;DHT22;13143;50.924;5.320;2023-09-18T13:49:15;23.10;99.90
25192;DHT22;13143;50.924;5.320;2023-09-18T13:51:41;23.20;99.90
25192;DHT22;13143;50.924;5.320;2023-09-18T13:54:07;23.20;99.90
25192;DHT22;13143;50.924;5.320;2023-09-18T13:56:33;23.30;99.90
25192;DHT22;13143;50.924;5.320;2023-09-18T13:58:59;23.30;99.90
25192;DHT22;13143;50.924;5.320;2023-09-18T14:01:25;23.30;99.90
25192;DHT22;13143;50.924;5.320;2023-09-18T14:03:53;23.30;99.90
25192;DHT22;13143;50.924;5.320;2023-09-18T14:06:20;23.30;99.90
25192;DHT22;13143;50.924;5.320;2023-09-18T14:08:46;23.40;99.90
25192;DHT22;13143;50.924;5.320;2023-09-18T14:11:12;23.40;99.90
25192;DHT22;13143;50.924;5.320;2023-09-18T14:13:37;23.40;99.90
25192;DHT22;13143;50.924;5.320;2023-09-18T14:16:03;23.40;99.90
25192;DHT22;13143;50.924;5.320;2023-09-18T14:18:29;23.40;99.90
25192;DHT22;13143;50.924;5.320;2023-09-18T14:20:55;23.40;99.90
25192;DHT22;13143;50.924;5.320;2023-09-18T14:23:21;23.40;99.90
25192;DHT22;13143;50.924;5.320;2023-09-18T14:25:47;23.40;99.90
25192;DHT22;13143;50.924;5.320;2023-09-18T14:28:13;23.50;99.90
25192;DHT22;13143;50.924;5.320;2023-09-18T14:30:39;23.50;99.90
25192;DHT22;13143;50.924;5.320;2023-09-18T14:33:04;23.50;99.90
25192;DHT22;13143;50.924;5.320;2023-09-18T14:35:30;23.50;99.90
25192;DHT22;13143;50.924;5.320;2023-09-18T14:37:56;23.50;99.90
25192;DHT22;13143;50.924;5.320;2023-09-18T14:40:22;23.50;99.90
25192;DHT22;13143;50.924;5.320;2023-09-18T14:42:48;23.50;99.90
25192;DHT22;13143;50.924;5.320;2023-09-18T14:45:13;23.50;99.90
25192;DHT22;13143;50.924;5.320;2023-09-18T14:47:39;23.60;99.90
25192;DHT22;13143;50.924;5.320;2023-09-18T14:50:06;23.60;99.90
25192;DHT22;13143;50.924;5.320;2023-09-18T14:52:32;23.60;99.90
25192;DHT22;13143;50.924;5.320;2023-09-18T14:54:58;23.60;99.90
25192;DHT22;13143;50.924;5.320;2023-09-18T14:57:25;23.60;99.90
25192;DHT22;13143;50.924;5.320;2023-09-18T14:59:52;23.60;99.90
25192;DHT22;13143;50.924;5.320;2023-09-18T15:02:18;23.70;99.90
25192;DHT22;13143;50.924;5.320;2023-09-18T15:04:45;23.70;99.90
25192;DHT22;13143;50.924;5.320;2023-09-18T15:07:10;23.70;99.90
25192;DHT22;13143;50.924;5.320;2023-09-18T15:09:37;23.70;99.90
25192;DHT22;13143;50.924;5.320;2023-09-18T15:12:04;23.70;99.90
25192;DHT22;13143;50.924;5.320;2023-09-18T15:14:34;23.70;99.90
25192;DHT22;13143;50.924;5.320;2023-09-18T15:17:00;23.70;99.90
25192;DHT22;13143;50.924;5.320;2023-09-18T15:19:25;23.70;99.90
25192;DHT22;13143;50.924;5.320;2023-09-18T15:21:51;23.70;99.90
25192;DHT22;13143;50.924;5.320;2023-09-18T15:24:18;23.70;99.90
25192;DHT22;13143;50.924;5.320;2023-09-18T15:26:44;23.70;99.90
25192;DHT22;13143;50.924;5.320;2023-09-18T15:29:10;23.70;99.90
25192;DHT22;13143;50.924;5.320;2023-09-18T15:31:36;23.70;99.90
25192;DHT22;13143;50.924;5.320;2023-09-18T15:34:04;23.70;99.90
25192;DHT22;13143;50.924;5.320;2023-09-18T15:36:29;23.70;99.90
25192;DHT22;13143;50.924;5.320;2023-09-18T15:38:57;23.70;99.90
25192;DHT22;13143;50.924;5.320;2023-09-18T15:41:24;23.70;99.90